Terminal Aerodrome Forecast
Issued by NWS

Home | Current Version | Previous Version | Graphics & Text | Print | Product List | Glossary On
Versions: 1 2 3 4 5 6 7 8 9 10 11 12 13
209
FTUS43 KTOP 082320
TAFMHK
TAF
KMHK 082320Z 0900/0924 32003KT P6SM SKC
     FM091600 16007KT P6SM SCT150=

USA.gov is the U.S. government's official web portal to all federal, state and local government web resources and services.